SJX082 KJFK-RCTP
Flight info
| Callsign | SJX082 |
|---|---|
| Flight time | N/A |
| Altitude | 34000 |
| Route | GAYEL Q812 SYR DCT RAKAM DCT 48N080W 53N090W 56N100W 58N110W 60N120W 61N130W DCT JAGIT DCT NODLE R220 NANDY/N0493F350 R220 NUZAN/N0492F360 R220 NUBDA/N0499F370 R220 NODAN/N0495F360 R217 SDE Y512 ELDAK/N0491F380 Y512 GTC Y45 KMC Y382 WAKIT Y282 POPPY Y75 IGBOD Y34 HKC Y50 IGMON A1 DRAKE DRAKE1B |
| Aircraft | A35K/H-SDE2E3GHIJ3J4J5LM1ORWXY/LB1D1 |
Departure
| Time | 2026-05-01 14:53 |
|---|---|
| Airport | John F. Kennedy International Airport (KJFK) |
Arrival
| Time | N/A |
|---|---|
| Airport | Taiwan Taoyuan International Airport (RCTP) |
| Time | Latitude | Longitude | Altitude | Speed | Heading |
|---|---|---|---|---|---|
| 2026-05-01 14:40 | 40.63691 | -73.78443 | 26 ft | 0 kts | 278° |
| 2026-05-01 14:45 | 40.63688 | -73.78411 | 32 ft | 3 kts | 278° |
| 2026-05-01 14:45 | 40.63684 | -73.78376 | 32 ft | 3 kts | 278° |
| 2026-05-01 14:46 | 40.63682 | -73.78360 | 32 ft | 2 kts | 278° |
| 2026-05-01 14:46 | 40.63681 | -73.78350 | 32 ft | 0 kts | 278° |
| 2026-05-01 14:48 | 40.63679 | -73.78360 | 32 ft | 2 kts | 259° |
| 2026-05-01 14:48 | 40.63665 | -73.78369 | 31 ft | 3 kts | 194° |
| 2026-05-01 14:48 | 40.63562 | -73.78353 | 28 ft | 11 kts | 139° |
| 2026-05-01 14:49 | 40.63454 | -73.78139 | 26 ft | 18 kts | 120° |
| 2026-05-01 14:49 | 40.63308 | -73.77805 | 29 ft | 23 kts | 120° |
| 2026-05-01 14:50 | 40.63168 | -73.77493 | 28 ft | 24 kts | 121° |
| 2026-05-01 14:50 | 40.62974 | -73.77091 | 26 ft | 5 kts | 151° |
| 2026-05-01 14:51 | 40.62958 | -73.77091 | 26 ft | 4 kts | 180° |
| 2026-05-01 14:51 | 40.62876 | -73.77137 | 27 ft | 8 kts | 209° |
| 2026-05-01 14:52 | 40.62827 | -73.77240 | 28 ft | 7 kts | 298° |
| 2026-05-01 14:52 | 40.62850 | -73.77289 | 28 ft | 6 kts | 302° |
| 2026-05-01 14:52 | 40.62908 | -73.77418 | 29 ft | 34 kts | 300° |
| 2026-05-01 14:53 | 40.63142 | -73.77932 | 30 ft | 96 kts | 301° |
| 2026-05-01 14:53 | 40.63584 | -73.78908 | 29 ft | 151 kts | 300° |
| 2026-05-01 14:53 | 40.64210 | -73.80270 | 125 ft | 190 kts | 302° |
| 2026-05-01 14:53 | 40.64766 | -73.81816 | 950 ft | 185 kts | 284° |
| 2026-05-01 14:54 | 40.65359 | -73.83329 | 1598 ft | 197 kts | 317° |
| 2026-05-01 14:54 | 40.66582 | -73.84268 | 1939 ft | 211 kts | 340° |
| 2026-05-01 14:54 | 40.68026 | -73.84814 | 2116 ft | 227 kts | 346° |
| 2026-05-01 14:54 | 40.69635 | -73.85355 | 2391 ft | 243 kts | 343° |
| 2026-05-01 14:55 | 40.71265 | -73.86052 | 2852 ft | 249 kts | 339° |
| 2026-05-01 14:55 | 40.72852 | -73.86917 | 3373 ft | 251 kts | 335° |
| 2026-05-01 14:55 | 40.74441 | -73.87931 | 3908 ft | 251 kts | 332° |
| 2026-05-01 14:55 | 40.75973 | -73.88996 | 4386 ft | 252 kts | 331° |
| 2026-05-01 14:56 | 40.77528 | -73.90125 | 4942 ft | 251 kts | 330° |
| 2026-05-01 14:56 | 40.79036 | -73.91230 | 5498 ft | 252 kts | 330° |
| 2026-05-01 14:56 | 40.80572 | -73.92349 | 6017 ft | 254 kts | 329° |
| 2026-05-01 14:56 | 40.82132 | -73.93478 | 6526 ft | 256 kts | 329° |
| 2026-05-01 14:57 | 40.83691 | -73.94601 | 7064 ft | 256 kts | 329° |
| 2026-05-01 14:57 | 40.86812 | -73.96836 | 8132 ft | 255 kts | 329° |
| 2026-05-01 14:57 | 40.88367 | -73.97948 | 8716 ft | 254 kts | 329° |
| 2026-05-01 14:58 | 40.89914 | -73.99055 | 9301 ft | 254 kts | 329° |
| 2026-05-01 14:58 | 40.91478 | -74.00174 | 9838 ft | 254 kts | 329° |
| 2026-05-01 14:58 | 40.93051 | -74.01303 | 10225 ft | 261 kts | 328° |
| 2026-05-01 14:58 | 40.94678 | -74.02474 | 10463 ft | 272 kts | 328° |
| 2026-05-01 14:59 | 40.96375 | -74.03695 | 10693 ft | 284 kts | 328° |
| 2026-05-01 14:59 | 40.98147 | -74.04969 | 10934 ft | 295 kts | 328° |
| 2026-05-01 14:59 | 40.99989 | -74.06293 | 11158 ft | 307 kts | 328° |
| 2026-05-01 14:59 | 41.01900 | -74.07669 | 11406 ft | 318 kts | 328° |
| 2026-05-01 15:00 | 41.05923 | -74.10565 | 11878 ft | 340 kts | 328° |
| 2026-05-01 15:00 | 41.08033 | -74.12082 | 12112 ft | 350 kts | 328° |
| 2026-05-01 15:00 | 41.10195 | -74.13638 | 12396 ft | 358 kts | 328° |
| 2026-05-01 15:01 | 41.12403 | -74.15226 | 12833 ft | 362 kts | 328° |
| 2026-05-01 15:01 | 41.14624 | -74.16824 | 13291 ft | 366 kts | 328° |
| 2026-05-01 15:01 | 41.16870 | -74.18445 | 13733 ft | 370 kts | 328° |
| 2026-05-01 15:01 | 41.19141 | -74.20085 | 14127 ft | 373 kts | 327° |
| 2026-05-01 15:02 | 41.21419 | -74.21730 | 14537 ft | 375 kts | 327° |
| 2026-05-01 15:02 | 41.22952 | -74.22839 | 14832 ft | 377 kts | 327° |
| 2026-05-01 15:02 | 41.26001 | -74.25049 | 15407 ft | 379 kts | 327° |
| 2026-05-01 15:02 | 41.28324 | -74.26733 | 15804 ft | 382 kts | 327° |
| 2026-05-01 15:03 | 41.30666 | -74.28432 | 16237 ft | 384 kts | 327° |
| 2026-05-01 15:03 | 41.33018 | -74.30143 | 16660 ft | 386 kts | 326° |
| 2026-05-01 15:03 | 41.35385 | -74.31865 | 17085 ft | 389 kts | 326° |
| 2026-05-01 15:03 | 41.37760 | -74.33616 | 17494 ft | 391 kts | 324° |
| 2026-05-01 15:04 | 41.39947 | -74.35733 | 17906 ft | 387 kts | 313° |
| 2026-05-01 15:04 | 41.41718 | -74.38399 | 18329 ft | 385 kts | 302° |
| 2026-05-01 15:04 | 41.43224 | -74.41343 | 18708 ft | 385 kts | 299° |
| 2026-05-01 15:04 | 41.44609 | -74.44404 | 19134 ft | 386 kts | 297° |
| 2026-05-01 15:05 | 41.45920 | -74.47480 | 19552 ft | 387 kts | 296° |
| 2026-05-01 15:05 | 41.47231 | -74.50622 | 19982 ft | 388 kts | 296° |
| 2026-05-01 15:05 | 41.48546 | -74.53774 | 20410 ft | 390 kts | 296° |
| 2026-05-01 15:05 | 41.49877 | -74.56935 | 20838 ft | 392 kts | 296° |
| 2026-05-01 15:06 | 41.51228 | -74.60109 | 21211 ft | 394 kts | 296° |
| 2026-05-01 15:06 | 41.52592 | -74.63287 | 21677 ft | 395 kts | 296° |
| 2026-05-01 15:06 | 41.53961 | -74.66465 | 22126 ft | 396 kts | 296° |
| 2026-05-01 15:06 | 41.55338 | -74.69659 | 22539 ft | 398 kts | 296° |
| 2026-05-01 15:07 | 41.56719 | -74.72864 | 22970 ft | 399 kts | 295° |
| 2026-05-01 15:07 | 41.58125 | -74.76070 | 23346 ft | 403 kts | 297° |
| 2026-05-01 15:07 | 41.59777 | -74.79132 | 23716 ft | 409 kts | 304° |
| 2026-05-01 15:07 | 41.61759 | -74.81899 | 24020 ft | 417 kts | 311° |
| 2026-05-01 15:08 | 41.63920 | -74.84489 | 24341 ft | 420 kts | 313° |
| 2026-05-01 15:08 | 41.66172 | -74.87029 | 24667 ft | 423 kts | 314° |
| 2026-05-01 15:08 | 41.68456 | -74.89534 | 24970 ft | 425 kts | 314° |
| 2026-05-01 15:08 | 41.70757 | -74.92038 | 25275 ft | 427 kts | 314° |
| 2026-05-01 15:09 | 41.73070 | -74.94557 | 25587 ft | 429 kts | 314° |
| 2026-05-01 15:09 | 41.75378 | -74.97086 | 25892 ft | 431 kts | 314° |
| 2026-05-01 15:09 | 41.77702 | -74.99650 | 26183 ft | 433 kts | 314° |
| 2026-05-01 15:09 | 41.80027 | -75.02226 | 26473 ft | 435 kts | 314° |
| 2026-05-01 15:10 | 41.82360 | -75.04821 | 26791 ft | 436 kts | 314° |
| 2026-05-01 15:10 | 41.87049 | -75.10051 | 27362 ft | 440 kts | 314° |
| 2026-05-01 15:10 | 41.89403 | -75.12680 | 27604 ft | 442 kts | 314° |
| 2026-05-01 15:11 | 41.91756 | -75.15309 | 27867 ft | 444 kts | 314° |
| 2026-05-01 15:11 | 41.96532 | -75.20655 | 28391 ft | 447 kts | 313° |
| 2026-05-01 15:11 | 41.98922 | -75.23337 | 28640 ft | 449 kts | 313° |
| 2026-05-01 15:12 | 42.01327 | -75.26034 | 28899 ft | 450 kts | 314° |
| 2026-05-01 15:12 | 42.06199 | -75.31326 | 29614 ft | 453 kts | 318° |
| 2026-05-01 15:12 | 42.08848 | -75.33625 | 29923 ft | 455 kts | 321° |
| 2026-05-01 15:13 | 42.17038 | -75.40207 | 30553 ft | 459 kts | 322° |
| 2026-05-01 15:14 | 42.22540 | -75.44558 | 30908 ft | 460 kts | 322° |
| 2026-05-01 15:14 | 42.25306 | -75.46753 | 31068 ft | 460 kts | 323° |
| 2026-05-01 15:14 | 42.30828 | -75.51156 | 31401 ft | 461 kts | 323° |
| 2026-05-01 15:15 | 42.36365 | -75.55590 | 31665 ft | 464 kts | 323° |
| 2026-05-01 15:15 | 42.41928 | -75.60053 | 31965 ft | 465 kts | 323° |
| 2026-05-01 15:16 | 42.47495 | -75.64530 | 32224 ft | 466 kts | 323° |
| 2026-05-01 15:16 | 42.53079 | -75.69029 | 32487 ft | 468 kts | 323° |
| 2026-05-01 15:17 | 42.58688 | -75.73558 | 32728 ft | 469 kts | 323° |
| 2026-05-01 15:18 | 42.67107 | -75.80372 | 33138 ft | 470 kts | 324° |
| 2026-05-01 15:18 | 42.69919 | -75.82655 | 33258 ft | 470 kts | 324° |
| 2026-05-01 15:19 | 42.78325 | -75.89494 | 33550 ft | 472 kts | 324° |
| 2026-05-01 15:19 | 42.83958 | -75.94084 | 33786 ft | 473 kts | 324° |
| 2026-05-01 15:19 | 42.86793 | -75.96399 | 33894 ft | 473 kts | 324° |
| 2026-05-01 15:20 | 42.92436 | -76.01017 | 34000 ft | 475 kts | 324° |
| 2026-05-01 15:20 | 42.95274 | -76.03344 | 34008 ft | 478 kts | 324° |
| 2026-05-01 15:21 | 43.00999 | -76.08044 | 34005 ft | 481 kts | 324° |
| 2026-05-01 15:21 | 43.06724 | -76.12750 | 34013 ft | 480 kts | 324° |
| 2026-05-01 15:22 | 43.15405 | -76.19608 | 34011 ft | 485 kts | 331° |
| 2026-05-01 15:22 | 43.21882 | -76.22446 | 34005 ft | 492 kts | 340° |
| 2026-05-01 15:23 | 43.28538 | -76.24707 | 34002 ft | 493 kts | 341° |
| 2026-05-01 15:23 | 43.35222 | -76.26894 | 34003 ft | 494 kts | 341° |
| 2026-05-01 15:24 | 43.41898 | -76.29106 | 34001 ft | 494 kts | 341° |
| 2026-05-01 15:24 | 43.48570 | -76.31347 | 33998 ft | 494 kts | 341° |
| 2026-05-01 15:25 | 43.55236 | -76.33598 | 34001 ft | 494 kts | 341° |
| 2026-05-01 15:25 | 43.61920 | -76.35860 | 34000 ft | 494 kts | 341° |
| 2026-05-01 15:26 | 43.68595 | -76.38123 | 34006 ft | 494 kts | 341° |
| 2026-05-01 15:26 | 43.75270 | -76.40391 | 34011 ft | 494 kts | 341° |
| 2026-05-01 15:27 | 43.81884 | -76.42643 | 34011 ft | 494 kts | 341° |
| 2026-05-01 15:28 | 43.91912 | -76.46068 | 34011 ft | 494 kts | 341° |
| 2026-05-01 15:28 | 43.98580 | -76.48358 | 34014 ft | 494 kts | 341° |
| 2026-05-01 15:29 | 44.04874 | -76.51890 | 34025 ft | 484 kts | 327° |
| 2026-05-01 15:29 | 44.06833 | -76.53373 | 34019 ft | 484 kts | 326° |
| 2026-05-01 15:30 | 44.18481 | -76.62825 | 34019 ft | 485 kts | 325° |
| 2026-05-01 15:31 | 44.35942 | -76.77142 | 34018 ft | 486 kts | 325° |
| 2026-05-01 15:32 | 44.47610 | -76.86735 | 34008 ft | 487 kts | 325° |
| 2026-05-01 15:34 | 44.65133 | -77.01231 | 34005 ft | 488 kts | 325° |